X  Zamknij Lotniskowe dane METAR     LGEL Elefsis Airport
Temperatura
82°F Temperatura
59°F Punkt rosy
45% Wilgotność



Wiatr
0 MPH
0 KM/H
0 M/S
0 KTS



Cisza
N
Warunki bieżące

Unknown Unknown
Ciśnienie 1006.77 (hPa) - 29.73 (inHg)
Widoczność 0 (mil) - 0 (km)
Lotnisko
Kod lotniska LGEL

Położenie: Elefsis Airport
Odległość: 77 (mi)

Metar:
LGEL 222320Z AUTO 00000KT //// // ////// 28/15 Q1007 RE//

Czas: 23-07-2024 02:20 EEST